createdAt,value
2023-03-02T00:00:29.986Z,0.33
2023-03-02T00:01:29.971Z,0.38
2023-03-02T00:02:30.014Z,0.41
2023-03-02T00:03:30.010Z,0.33
2023-03-02T00:04:29.922Z,0.40
2023-03-02T00:05:29.984Z,0.37
2023-03-02T00:06:30.393Z,0.37
2023-03-02T00:07:29.889Z,0.38
2023-03-02T00:08:29.880Z,0.33
2023-03-02T00:09:29.885Z,0.38
2023-03-02T00:10:29.880Z,0.34
2023-03-02T00:11:29.831Z,0.31
2023-03-02T00:12:29.817Z,0.30
2023-03-02T00:13:29.803Z,0.20
2023-03-02T00:14:29.807Z,0.19
2023-03-02T00:15:29.858Z,0.33
2023-03-02T00:16:29.942Z,0.26
2023-03-02T00:17:29.754Z,0.26
2023-03-02T00:18:29.739Z,0.12
2023-03-02T00:19:29.725Z,0.17
2023-03-02T00:20:29.713Z,0.12
2023-03-02T00:21:29.707Z,0.05
2023-03-02T00:22:29.688Z,0.10
2023-03-02T00:23:29.669Z,0.15
2023-03-02T00:24:29.662Z,0.19
2023-03-02T00:25:29.650Z,0.05
2023-03-02T00:26:29.671Z,0.08
2023-03-02T00:27:29.623Z,-0.02
2023-03-02T00:28:29.620Z,0.07
2023-03-02T00:29:29.593Z,0.05
2023-03-02T00:30:29.575Z,-0.06
2023-03-02T00:31:29.587Z,-0.08
2023-03-02T00:32:29.597Z,-0.03
2023-03-02T00:33:29.537Z,-0.08
2023-03-02T00:34:29.525Z,-0.03
2023-03-02T00:35:29.560Z,0.05
2023-03-02T00:36:29.506Z,-0.16
2023-03-02T00:37:29.489Z,-0.06
2023-03-02T00:38:29.465Z,-0.21
2023-03-02T00:39:29.455Z,-0.19
2023-03-02T00:40:29.446Z,-0.14
2023-03-02T00:41:29.433Z,-0.16
2023-03-02T00:42:29.433Z,-0.32
2023-03-02T00:43:29.404Z,-0.09
2023-03-02T00:44:29.384Z,-0.27
2023-03-02T00:45:29.368Z,-0.06
2023-03-02T00:46:29.454Z,-0.23
2023-03-02T00:47:29.345Z,-0.17
2023-03-02T00:48:29.334Z,-0.24
2023-03-02T00:49:29.330Z,-0.17
2023-03-02T00:50:29.309Z,-0.23
2023-03-02T00:51:29.293Z,-0.27
2023-03-02T00:52:29.631Z,-0.27
2023-03-02T00:53:29.263Z,-0.24
2023-03-02T00:54:29.267Z,-0.17
2023-03-02T00:55:29.255Z,-0.19
2023-03-02T00:56:29.268Z,-0.23
2023-03-02T00:57:29.211Z,-0.30
2023-03-02T00:58:29.222Z,-0.30
2023-03-02T00:59:29.239Z,-0.30
2023-03-02T01:00:29.179Z,-0.35
2023-03-02T01:01:29.165Z,-0.31
2023-03-02T01:02:29.364Z,-0.27
2023-03-02T01:03:29.202Z,-0.32
2023-03-02T01:04:29.114Z,-0.20
2023-03-02T01:05:29.110Z,-0.24
2023-03-02T01:06:29.096Z,-0.31
2023-03-02T01:07:29.080Z,-0.30
2023-03-02T01:08:29.074Z,-0.21
2023-03-02T01:09:29.056Z,-0.30
2023-03-02T01:10:29.043Z,-0.24
2023-03-02T01:11:29.028Z,-0.30
2023-03-02T01:12:29.019Z,-0.26
2023-03-02T01:13:29.047Z,-0.23
2023-03-02T01:14:29.021Z,-0.26
2023-03-02T01:15:28.980Z,-0.30
2023-03-02T01:16:29.027Z,-0.17
2023-03-02T01:17:28.948Z,-0.16
2023-03-02T01:18:28.959Z,-0.17
2023-03-02T01:19:28.923Z,-0.21
2023-03-02T01:20:28.909Z,-0.24
2023-03-02T01:21:28.898Z,-0.21
2023-03-02T01:22:28.884Z,-0.21
2023-03-02T01:23:28.872Z,-0.14
2023-03-02T01:24:28.858Z,-0.13
2023-03-02T01:25:28.849Z,-0.13
2023-03-02T01:26:28.868Z,-0.17
2023-03-02T01:27:28.846Z,-0.19
2023-03-02T01:28:28.808Z,-0.09
2023-03-02T01:29:28.787Z,-0.16
2023-03-02T01:30:28.802Z,-0.13
2023-03-02T01:31:28.866Z,-0.02
2023-03-02T01:32:28.797Z,-0.21
2023-03-02T01:33:28.741Z,-0.12
2023-03-02T01:34:28.730Z,-0.05
2023-03-02T01:35:28.765Z,-0.12
2023-03-02T01:36:28.996Z,0.01
2023-03-02T01:37:28.687Z,-0.03
2023-03-02T01:38:28.743Z,0.04
2023-03-02T01:39:28.653Z,0.12
2023-03-02T01:40:28.643Z,0.22
2023-03-02T01:41:28.627Z,0.17
2023-03-02T01:42:28.626Z,0.16
2023-03-02T01:43:28.608Z,0.22
2023-03-02T01:44:28.590Z,0.16
2023-03-02T01:45:28.599Z,0.20
2023-03-02T01:46:28.631Z,0.25
2023-03-02T01:47:28.560Z,0.30
2023-03-02T01:48:28.539Z,0.33
2023-03-02T01:49:28.525Z,0.34
2023-03-02T01:50:28.507Z,0.30
2023-03-02T01:51:28.497Z,0.37
2023-03-02T01:52:28.484Z,0.40
2023-03-02T01:53:28.509Z,0.37
2023-03-02T01:54:28.457Z,0.38
2023-03-02T01:55:28.690Z,0.40
2023-03-02T01:56:28.432Z,0.37
2023-03-02T01:57:28.417Z,0.38
2023-03-02T01:58:28.396Z,0.35
2023-03-02T01:59:28.385Z,0.49
2023-03-02T02:00:28.372Z,0.52
2023-03-02T02:01:28.396Z,0.51
2023-03-02T02:02:28.373Z,0.49
2023-03-02T02:03:28.345Z,0.49
2023-03-02T02:04:28.322Z,0.45
2023-03-02T02:05:28.329Z,0.56
2023-03-02T02:06:28.298Z,0.51
2023-03-02T02:07:28.282Z,0.63
2023-03-02T02:08:28.285Z,0.63
2023-03-02T02:09:28.254Z,0.70
2023-03-02T02:10:28.244Z,0.63
2023-03-02T02:11:28.267Z,0.63
2023-03-02T02:12:28.213Z,0.70
2023-03-02T02:13:28.196Z,0.71
2023-03-02T02:14:28.183Z,0.72
2023-03-02T02:15:28.171Z,0.74
2023-03-02T02:16:28.230Z,0.72
2023-03-02T02:17:28.147Z,0.71
2023-03-02T02:18:28.251Z,0.67
2023-03-02T02:19:28.120Z,0.74
2023-03-02T02:20:28.105Z,0.77
2023-03-02T02:21:28.090Z,0.82
2023-03-02T02:22:28.081Z,0.84
2023-03-02T02:23:28.059Z,0.92
2023-03-02T02:24:28.043Z,0.88
2023-03-02T02:25:28.033Z,0.90
2023-03-02T02:26:28.019Z,0.84
2023-03-02T02:27:28.018Z,0.98
2023-03-02T02:28:28.030Z,0.92
2023-03-02T02:29:27.984Z,1.02
2023-03-02T02:30:27.963Z,1.04
2023-03-02T02:31:27.986Z,0.98
2023-03-02T02:32:27.994Z,1.00
2023-03-02T02:33:27.932Z,1.02
2023-03-02T02:34:27.940Z,1.08
2023-03-02T02:35:27.940Z,1.02
2023-03-02T02:36:27.885Z,1.07
2023-03-02T02:37:27.879Z,1.13
2023-03-02T02:38:27.855Z,1.13
2023-03-02T02:39:27.860Z,1.20
2023-03-02T02:40:27.828Z,1.26
2023-03-02T02:41:27.826Z,1.20
2023-03-02T02:42:27.807Z,1.36
2023-03-02T02:43:27.791Z,1.28
2023-03-02T02:44:27.774Z,1.38
2023-03-02T02:45:27.873Z,1.43
2023-03-02T02:46:27.761Z,1.39
2023-03-02T02:47:27.742Z,1.47
2023-03-02T02:48:27.721Z,1.57
2023-03-02T02:49:27.711Z,1.57
2023-03-02T02:50:27.715Z,1.57
2023-03-02T02:51:27.695Z,1.56
2023-03-02T02:52:27.673Z,1.72
2023-03-02T02:53:27.675Z,1.63
2023-03-02T02:54:27.989Z,1.60
2023-03-02T02:55:27.623Z,1.71
2023-03-02T02:56:27.623Z,1.70
2023-03-02T02:57:27.603Z,1.71
2023-03-02T02:58:27.603Z,1.70
2023-03-02T02:59:27.577Z,1.82
2023-03-02T03:00:27.557Z,1.77
2023-03-02T03:01:27.700Z,1.86
2023-03-02T03:02:27.981Z,1.77
2023-03-02T03:03:27.525Z,1.82
2023-03-02T03:04:27.574Z,1.90
2023-03-02T03:05:27.746Z,1.82
2023-03-02T03:06:27.504Z,1.88
2023-03-02T03:07:27.472Z,1.90
2023-03-02T03:08:27.453Z,1.89
2023-03-02T03:09:27.524Z,1.90
2023-03-02T03:10:27.428Z,1.82
2023-03-02T03:11:27.431Z,1.75
2023-03-02T03:12:27.406Z,1.83
2023-03-02T03:13:27.389Z,1.82
2023-03-02T03:14:27.376Z,1.83
2023-03-02T03:15:27.376Z,1.82
2023-03-02T03:16:27.607Z,1.77
2023-03-02T03:17:27.343Z,1.88
2023-03-02T03:18:27.318Z,1.75
2023-03-02T03:19:27.304Z,1.74
2023-03-02T03:20:27.292Z,1.79
2023-03-02T03:21:27.292Z,1.77
2023-03-02T03:22:27.291Z,1.77
2023-03-02T03:23:27.254Z,1.89
2023-03-02T03:24:27.268Z,1.79
2023-03-02T03:25:27.243Z,1.75
2023-03-02T03:26:27.217Z,1.83
2023-03-02T03:27:27.201Z,1.79
2023-03-02T03:28:27.188Z,1.81
2023-03-02T03:29:27.174Z,1.81
2023-03-02T03:30:27.155Z,1.88
2023-03-02T03:31:27.148Z,1.88
2023-03-02T03:32:27.181Z,1.88
2023-03-02T03:33:27.120Z,1.81
2023-03-02T03:34:27.100Z,1.85
2023-03-02T03:35:27.197Z,1.86
2023-03-02T03:36:27.070Z,1.88
2023-03-02T03:37:27.059Z,1.82
2023-03-02T03:38:27.278Z,1.95
2023-03-02T03:39:27.032Z,1.89
2023-03-02T03:40:27.021Z,1.85
2023-03-02T03:41:27.009Z,1.95
2023-03-02T03:42:27.000Z,1.88
2023-03-02T03:43:26.990Z,1.83
2023-03-02T03:44:26.968Z,1.92
2023-03-02T03:45:28.276Z,1.81
2023-03-02T03:46:27.021Z,1.86
2023-03-02T03:47:26.937Z,1.90
2023-03-02T03:48:26.920Z,1.90
2023-03-02T03:49:26.918Z,1.90
2023-03-02T03:50:26.888Z,1.81
2023-03-02T03:51:26.901Z,1.85
2023-03-02T03:52:26.862Z,1.82
2023-03-02T03:53:26.857Z,1.86
2023-03-02T03:54:26.854Z,1.82
2023-03-02T03:55:26.820Z,1.90
2023-03-02T03:56:26.806Z,1.90
2023-03-02T03:57:26.789Z,1.88
2023-03-02T03:58:26.845Z,1.90
2023-03-02T03:59:26.973Z,1.86
2023-03-02T04:00:26.759Z,1.82
2023-03-02T04:01:26.846Z,1.89
2023-03-02T04:02:26.843Z,1.75
2023-03-02T04:03:26.716Z,1.89
2023-03-02T04:04:26.699Z,1.95
2023-03-02T04:05:26.689Z,1.90
2023-03-02T04:06:26.772Z,1.92
2023-03-02T04:07:26.864Z,1.85
2023-03-02T04:08:26.929Z,1.89
2023-03-02T04:09:26.635Z,1.92
2023-03-02T04:10:26.645Z,1.93
2023-03-02T04:11:26.611Z,1.86
2023-03-02T04:12:26.598Z,1.89
2023-03-02T04:13:26.585Z,1.79
2023-03-02T04:14:26.565Z,1.92
2023-03-02T04:15:26.628Z,1.77
2023-03-02T04:16:26.535Z,1.98
2023-03-02T04:17:26.532Z,1.90
2023-03-02T04:18:26.516Z,1.86
2023-03-02T04:19:26.514Z,1.85
2023-03-02T04:20:26.486Z,1.90
2023-03-02T04:21:26.477Z,1.79
2023-03-02T04:22:26.507Z,1.90
2023-03-02T04:23:26.446Z,1.85
2023-03-02T04:24:26.430Z,1.83
2023-03-02T04:25:26.420Z,1.90
2023-03-02T04:26:26.531Z,1.93
2023-03-02T04:27:26.395Z,1.85
2023-03-02T04:28:26.390Z,1.75
2023-03-02T04:29:26.370Z,1.79
2023-03-02T04:30:26.358Z,1.83
2023-03-02T04:31:26.419Z,1.89
2023-03-02T04:32:26.399Z,1.82
2023-03-02T04:33:26.325Z,1.85
2023-03-02T04:34:26.315Z,1.81
2023-03-02T04:35:26.361Z,1.71
2023-03-02T04:36:26.283Z,1.85
2023-03-02T04:37:26.274Z,1.88
2023-03-02T04:38:26.255Z,1.83
2023-03-02T04:39:26.240Z,1.82
2023-03-02T04:40:26.230Z,1.89
2023-03-02T04:41:26.216Z,1.89
2023-03-02T04:42:26.247Z,1.83
2023-03-02T04:43:26.186Z,1.86
2023-03-02T04:44:26.172Z,1.79
2023-03-02T04:45:26.165Z,1.85
2023-03-02T04:46:26.256Z,1.74
2023-03-02T04:47:26.141Z,1.79
2023-03-02T04:48:26.127Z,1.89
2023-03-02T04:49:26.115Z,1.86
2023-03-02T04:50:26.100Z,1.85
2023-03-02T04:51:26.085Z,1.79
2023-03-02T04:52:26.084Z,1.83
2023-03-02T04:53:26.060Z,1.85
2023-03-02T04:54:26.058Z,1.79
2023-03-02T04:55:26.035Z,1.85
2023-03-02T04:56:26.144Z,1.79
2023-03-02T04:57:26.016Z,1.79
2023-03-02T04:58:26.023Z,1.85
2023-03-02T04:59:26.070Z,1.95
2023-03-02T05:00:25.972Z,1.88
2023-03-02T05:01:25.962Z,1.75
2023-03-02T05:02:26.041Z,1.74
2023-03-02T05:03:25.943Z,1.79
2023-03-02T05:04:26.415Z,1.85
2023-03-02T05:05:25.908Z,1.86
2023-03-02T05:06:25.884Z,1.81
2023-03-02T05:07:25.870Z,1.83
2023-03-02T05:08:25.861Z,1.82
2023-03-02T05:09:25.844Z,1.86
2023-03-02T05:10:25.832Z,1.93
2023-03-02T05:11:25.823Z,1.75
2023-03-02T05:12:25.813Z,1.86
2023-03-02T05:13:25.797Z,1.72
2023-03-02T05:14:25.802Z,1.83
2023-03-02T05:15:25.767Z,1.98
2023-03-02T05:16:25.867Z,1.85
2023-03-02T05:17:25.739Z,1.82
2023-03-02T05:18:25.729Z,1.82
2023-03-02T05:19:26.013Z,1.83
2023-03-02T05:20:25.700Z,1.81
2023-03-02T05:21:25.691Z,1.75
2023-03-02T05:22:25.678Z,1.85
2023-03-02T05:23:26.062Z,1.82
2023-03-02T05:24:25.645Z,1.77
2023-03-02T05:25:25.637Z,1.72
2023-03-02T05:26:25.632Z,1.83
2023-03-02T05:27:25.611Z,1.79
2023-03-02T05:28:25.600Z,1.72
2023-03-02T05:29:25.589Z,1.81
2023-03-02T05:30:25.598Z,1.81
2023-03-02T05:31:25.607Z,1.81
2023-03-02T05:32:25.585Z,1.74
2023-03-02T05:33:25.533Z,1.82
2023-03-02T05:34:25.514Z,1.79
2023-03-02T05:35:25.596Z,1.83
2023-03-02T05:36:25.488Z,1.86
2023-03-02T05:37:25.729Z,1.85
2023-03-02T05:38:25.469Z,1.83
2023-03-02T05:39:25.453Z,1.83
2023-03-02T05:40:25.445Z,1.75
2023-03-02T05:41:25.425Z,1.83
2023-03-02T05:42:25.421Z,1.86
2023-03-02T05:43:25.405Z,1.77
2023-03-02T05:44:25.385Z,1.85
2023-03-02T05:45:25.379Z,1.83
2023-03-02T05:46:25.442Z,1.92
2023-03-02T05:47:25.360Z,1.88
2023-03-02T05:48:25.336Z,1.86
2023-03-02T05:49:25.320Z,1.86
2023-03-02T05:50:25.300Z,1.83
2023-03-02T05:51:25.288Z,1.82
2023-03-02T05:52:25.275Z,1.98
2023-03-02T05:53:25.273Z,1.85
2023-03-02T05:54:25.254Z,1.85
2023-03-02T05:55:25.245Z,1.74
2023-03-02T05:56:25.279Z,1.90
2023-03-02T05:57:25.218Z,1.74
2023-03-02T05:58:25.203Z,1.81
2023-03-02T05:59:25.181Z,1.88
2023-03-02T06:00:25.170Z,1.90
2023-03-02T06:01:25.154Z,1.83
2023-03-02T06:02:25.245Z,1.83
2023-03-02T06:03:25.181Z,1.89
2023-03-02T06:04:25.120Z,1.85
2023-03-02T06:05:25.105Z,1.86
2023-03-02T06:06:25.096Z,1.89
2023-03-02T06:07:25.079Z,1.82
2023-03-02T06:08:25.071Z,1.93
2023-03-02T06:09:25.064Z,1.89
2023-03-02T06:10:25.052Z,1.86
2023-03-02T06:11:25.026Z,1.85
2023-03-02T06:12:25.014Z,1.71
2023-03-02T06:13:25.000Z,1.85
2023-03-02T06:14:25.285Z,1.90
2023-03-02T06:15:24.968Z,1.90
2023-03-02T06:16:25.011Z,1.83
2023-03-02T06:17:25.041Z,1.74
2023-03-02T06:18:24.955Z,1.85
2023-03-02T06:19:24.913Z,1.89
2023-03-02T06:20:24.907Z,1.72
2023-03-02T06:21:24.887Z,1.98
2023-03-02T06:22:24.880Z,1.86
2023-03-02T06:23:24.870Z,1.85
2023-03-02T06:24:24.858Z,1.89
2023-03-02T06:25:24.844Z,1.86
2023-03-02T06:26:24.820Z,1.85
2023-03-02T06:27:24.812Z,1.93
2023-03-02T06:28:24.801Z,1.85
2023-03-02T06:29:24.784Z,1.90
2023-03-02T06:30:24.793Z,1.86
2023-03-02T06:31:24.823Z,2.01
2023-03-02T06:32:24.941Z,1.86
2023-03-02T06:33:24.749Z,1.86
2023-03-02T06:34:24.874Z,1.92
2023-03-02T06:35:24.810Z,1.93
2023-03-02T06:36:24.754Z,1.93
2023-03-02T06:37:24.680Z,1.89
2023-03-02T06:38:24.664Z,2.04
2023-03-02T06:39:24.651Z,2.02
2023-03-02T06:40:24.739Z,1.98
2023-03-02T06:41:24.628Z,2.04
2023-03-02T06:42:24.632Z,2.01
2023-03-02T06:43:24.601Z,1.92
2023-03-02T06:44:24.588Z,2.05
2023-03-02T06:45:24.580Z,1.95
2023-03-02T06:46:24.664Z,2.15
2023-03-02T06:47:24.572Z,2.00
2023-03-02T06:48:24.540Z,2.04
2023-03-02T06:49:24.529Z,2.15
2023-03-02T06:50:24.580Z,2.12
2023-03-02T06:51:24.503Z,2.18
2023-03-02T06:52:24.495Z,2.08
2023-03-02T06:53:24.475Z,2.02
2023-03-02T06:54:24.461Z,2.11
2023-03-02T06:55:24.468Z,2.18
2023-03-02T06:56:24.438Z,2.07
2023-03-02T06:57:24.420Z,2.20
2023-03-02T06:58:24.415Z,2.15
2023-03-02T06:59:24.399Z,2.22
2023-03-02T07:00:25.850Z,2.15
2023-03-02T07:01:24.401Z,2.15
2023-03-02T07:02:24.348Z,2.22
2023-03-02T07:03:24.380Z,2.29
2023-03-02T07:04:24.319Z,2.19
2023-03-02T07:05:24.366Z,2.25
2023-03-02T07:06:24.366Z,2.22
2023-03-02T07:07:24.285Z,2.27
2023-03-02T07:08:24.266Z,2.30
2023-03-02T07:09:24.263Z,2.30
2023-03-02T07:10:24.245Z,2.40
2023-03-02T07:11:24.243Z,2.48
2023-03-02T07:12:24.212Z,2.44
2023-03-02T07:13:24.202Z,2.37
2023-03-02T07:14:24.189Z,2.41
2023-03-02T07:15:24.172Z,2.33
2023-03-02T07:16:24.238Z,2.25
2023-03-02T07:17:24.167Z,2.32
2023-03-02T07:18:24.139Z,2.32
2023-03-02T07:19:24.117Z,2.37
2023-03-02T07:20:24.101Z,2.36
2023-03-02T07:21:24.083Z,2.44
2023-03-02T07:22:24.098Z,2.38
2023-03-02T07:23:24.057Z,2.37
2023-03-02T07:24:24.052Z,2.38
2023-03-02T07:25:24.028Z,2.45
2023-03-02T07:26:24.022Z,2.47
2023-03-02T07:27:24.009Z,2.48
2023-03-02T07:28:23.996Z,2.37
2023-03-02T07:29:23.983Z,2.50
2023-03-02T07:30:23.964Z,2.48
2023-03-02T07:31:24.046Z,2.47
2023-03-02T07:32:24.026Z,2.38
2023-03-02T07:33:23.920Z,2.45
2023-03-02T07:34:23.918Z,2.58
2023-03-02T07:35:23.939Z,2.53
2023-03-02T07:36:23.893Z,2.43
2023-03-02T07:37:23.870Z,2.55
2023-03-02T07:38:23.906Z,2.45
2023-03-02T07:39:23.844Z,2.62
2023-03-02T07:40:23.843Z,2.68
2023-03-02T07:41:23.833Z,2.62
2023-03-02T07:42:23.801Z,2.73
2023-03-02T07:43:23.841Z,2.65
2023-03-02T07:44:23.777Z,2.77
2023-03-02T07:45:23.761Z,2.74
2023-03-02T07:46:23.794Z,2.77
2023-03-02T07:47:23.743Z,2.80
2023-03-02T07:48:23.728Z,2.84
2023-03-02T07:49:23.718Z,2.81
2023-03-02T07:50:23.703Z,2.87
2023-03-02T07:51:23.685Z,2.92
2023-03-02T07:52:23.672Z,2.90
2023-03-02T07:53:23.655Z,2.98
2023-03-02T07:54:23.678Z,3.04
2023-03-02T07:55:23.630Z,3.08
2023-03-02T07:56:23.633Z,3.01
2023-03-02T07:57:23.606Z,3.07
2023-03-02T07:58:23.589Z,3.07
2023-03-02T07:59:23.569Z,2.98
2023-03-02T08:00:23.581Z,2.99
2023-03-02T08:01:23.612Z,3.12
2023-03-02T08:02:23.554Z,3.01
2023-03-02T08:03:23.612Z,3.13
2023-03-02T08:04:23.504Z,3.16
2023-03-02T08:05:23.492Z,3.19
2023-03-02T08:06:23.477Z,3.20
2023-03-02T08:07:23.466Z,3.16
2023-03-02T08:08:23.445Z,3.25
2023-03-02T08:09:23.434Z,3.19
2023-03-02T08:10:23.447Z,3.20
2023-03-02T08:11:23.407Z,3.28
2023-03-02T08:12:23.412Z,3.39
2023-03-02T08:13:23.379Z,3.37
2023-03-02T08:14:23.371Z,3.37
2023-03-02T08:15:23.357Z,3.45
2023-03-02T08:16:23.417Z,3.50
2023-03-02T08:17:23.328Z,3.45
2023-03-02T08:18:23.366Z,3.41
2023-03-02T08:19:23.555Z,3.42
2023-03-02T08:20:23.296Z,3.57
2023-03-02T08:21:23.281Z,3.60
2023-03-02T08:22:23.321Z,3.63
2023-03-02T08:23:23.301Z,3.54
2023-03-02T08:24:23.236Z,3.54
2023-03-02T08:25:23.223Z,3.64
2023-03-02T08:26:23.247Z,3.84
2023-03-02T08:27:23.195Z,3.74
2023-03-02T08:28:23.226Z,3.88
2023-03-02T08:29:23.167Z,3.81
2023-03-02T08:30:23.158Z,3.78
2023-03-02T08:31:23.201Z,3.93
2023-03-02T08:32:23.172Z,3.89
2023-03-02T08:33:23.115Z,3.93
2023-03-02T08:34:23.097Z,3.93
2023-03-02T08:35:23.116Z,4.00
2023-03-02T08:36:23.085Z,4.11
2023-03-02T08:37:23.060Z,4.10
2023-03-02T08:38:23.055Z,4.26
2023-03-02T08:39:23.051Z,4.25
2023-03-02T08:40:23.023Z,4.18
2023-03-02T08:41:23.015Z,4.29
2023-03-02T08:42:23.017Z,4.29
2023-03-02T08:43:22.983Z,4.39
2023-03-02T08:44:22.974Z,4.36
2023-03-02T08:45:22.952Z,4.32
2023-03-02T08:46:22.940Z,4.42
2023-03-02T08:47:22.922Z,4.53
2023-03-02T08:48:22.913Z,4.56
2023-03-02T08:49:22.902Z,4.51
2023-03-02T08:50:22.885Z,4.57
2023-03-02T08:51:22.865Z,4.64
2023-03-02T08:52:22.855Z,4.64
2023-03-02T08:53:22.841Z,4.65
2023-03-02T08:54:22.828Z,4.72
2023-03-02T08:55:22.891Z,4.62
2023-03-02T08:56:22.803Z,4.86
2023-03-02T08:57:22.784Z,4.80
2023-03-02T08:58:22.797Z,4.75
2023-03-02T08:59:22.759Z,4.69
2023-03-02T09:00:22.745Z,4.64
2023-03-02T09:01:22.984Z,4.54
2023-03-02T09:02:22.714Z,4.65
2023-03-02T09:03:22.700Z,4.68
2023-03-02T09:04:22.772Z,4.71
2023-03-02T09:05:22.670Z,4.62
2023-03-02T09:06:22.756Z,4.59
2023-03-02T09:07:22.654Z,4.64
2023-03-02T09:08:22.633Z,4.61
2023-03-02T09:09:22.616Z,4.68
2023-03-02T09:10:23.053Z,4.77
2023-03-02T09:11:22.597Z,4.74
2023-03-02T09:12:22.581Z,4.69
2023-03-02T09:13:22.563Z,4.77
2023-03-02T09:14:22.580Z,4.69
2023-03-02T09:15:22.546Z,4.72
2023-03-02T09:16:22.622Z,4.74
2023-03-02T09:17:22.513Z,4.69
2023-03-02T09:18:22.506Z,4.72
2023-03-02T09:19:22.489Z,4.72
2023-03-02T09:20:22.471Z,4.80
2023-03-02T09:21:22.465Z,4.87
2023-03-02T09:22:22.446Z,4.91
2023-03-02T09:23:22.435Z,5.08
2023-03-02T09:24:22.473Z,5.02
2023-03-02T09:25:22.409Z,5.04
2023-03-02T09:26:22.401Z,5.02
2023-03-02T09:27:22.440Z,4.96
2023-03-02T09:28:22.374Z,4.97
2023-03-02T09:29:22.357Z,4.99
2023-03-02T09:30:22.377Z,5.08
2023-03-02T09:31:22.363Z,5.06
2023-03-02T09:32:22.509Z,5.19
2023-03-02T09:33:22.313Z,5.26
2023-03-02T09:34:22.305Z,5.17
2023-03-02T09:35:22.296Z,5.23
2023-03-02T09:36:22.267Z,5.11
2023-03-02T09:37:22.248Z,5.14
2023-03-02T09:38:22.259Z,5.17
2023-03-02T09:39:22.220Z,5.26
2023-03-02T09:40:22.210Z,5.37
2023-03-02T09:41:22.192Z,5.41
2023-03-02T09:42:24.061Z,5.49
2023-03-02T09:43:22.167Z,5.52
2023-03-02T09:44:22.175Z,5.55
2023-03-02T09:45:22.146Z,5.70
2023-03-02T09:46:22.283Z,5.60
2023-03-02T09:47:34.927Z,5.66
2023-03-02T09:48:23.127Z,5.63
2023-03-02T09:49:22.084Z,5.70
2023-03-02T09:50:22.071Z,5.75
2023-03-02T09:51:22.058Z,5.75
2023-03-02T09:52:22.070Z,5.78
2023-03-02T09:53:22.036Z,5.67
2023-03-02T09:54:22.070Z,5.80
2023-03-02T09:55:22.035Z,5.75
2023-03-02T09:56:21.995Z,5.80
2023-03-02T09:57:21.980Z,5.95
2023-03-02T09:58:21.958Z,6.05
2023-03-02T09:59:21.946Z,6.11
2023-03-02T10:00:21.936Z,6.08
2023-03-02T10:01:21.918Z,6.20
2023-03-02T10:02:21.926Z,6.17
2023-03-02T10:03:21.938Z,6.21
2023-03-02T10:04:22.107Z,6.24
2023-03-02T10:05:21.860Z,6.27
2023-03-02T10:06:21.883Z,6.24
2023-03-02T10:07:21.839Z,6.24
2023-03-02T10:08:21.824Z,6.24
2023-03-02T10:09:21.808Z,6.35
2023-03-02T10:10:21.797Z,6.28
2023-03-02T10:11:21.790Z,6.30
2023-03-02T10:12:21.775Z,6.30
2023-03-02T10:13:21.759Z,6.40
2023-03-02T10:14:21.744Z,6.14
2023-03-02T10:15:21.729Z,6.28
2023-03-02T10:16:21.786Z,6.28
2023-03-02T10:17:21.702Z,6.33
2023-03-02T10:18:21.853Z,6.32
2023-03-02T10:19:21.671Z,6.42
2023-03-02T10:20:21.658Z,6.58
2023-03-02T10:21:21.677Z,6.63
2023-03-02T10:22:21.648Z,6.78
2023-03-02T10:23:21.639Z,6.75
2023-03-02T10:24:21.607Z,6.68
2023-03-02T10:25:21.604Z,6.81
2023-03-02T10:26:21.582Z,6.65
2023-03-02T10:27:21.572Z,6.79
2023-03-02T10:28:21.552Z,6.99
2023-03-02T10:29:21.537Z,6.89
2023-03-02T10:30:21.525Z,6.89
2023-03-02T10:31:21.704Z,7.01
2023-03-02T10:32:21.553Z,6.96
2023-03-02T10:33:21.504Z,7.09
2023-03-02T10:34:21.492Z,6.99
2023-03-02T10:35:21.507Z,6.94
2023-03-02T10:36:21.451Z,6.97
2023-03-02T10:37:21.460Z,6.93
2023-03-02T10:38:21.422Z,6.82
2023-03-02T10:39:21.403Z,6.86
2023-03-02T10:40:21.395Z,6.79
2023-03-02T10:41:21.375Z,6.68
2023-03-02T10:42:21.405Z,6.82
2023-03-02T10:43:21.343Z,6.90
2023-03-02T10:44:21.335Z,7.05
2023-03-02T10:45:21.316Z,7.04
2023-03-02T10:46:21.366Z,7.09
2023-03-02T10:47:21.301Z,7.01
2023-03-02T10:48:21.280Z,7.01
2023-03-02T10:49:21.294Z,6.99
2023-03-02T10:50:21.275Z,6.71
2023-03-02T10:51:21.235Z,6.64
2023-03-02T10:52:21.223Z,6.71
2023-03-02T10:53:21.206Z,6.79
2023-03-02T10:54:21.199Z,6.82
2023-03-02T10:55:21.177Z,6.87
2023-03-02T10:56:21.574Z,6.83
2023-03-02T10:57:21.153Z,6.83
2023-03-02T10:58:21.143Z,6.71
2023-03-02T10:59:21.137Z,6.78
2023-03-02T11:00:21.130Z,6.64
2023-03-02T11:01:21.194Z,6.73
2023-03-02T11:02:21.089Z,6.83
2023-03-02T11:03:21.085Z,6.94
2023-03-02T11:04:21.097Z,6.90
2023-03-02T11:05:21.045Z,7.01
2023-03-02T11:06:21.187Z,6.94
2023-03-02T11:07:21.024Z,7.00
2023-03-02T11:08:21.006Z,7.18
2023-03-02T11:09:20.996Z,7.11
2023-03-02T11:10:20.979Z,7.32
2023-03-02T11:11:21.053Z,7.32
2023-03-02T11:12:20.958Z,7.26
2023-03-02T11:13:20.936Z,7.36
2023-03-02T11:14:20.921Z,7.33
2023-03-02T11:15:20.917Z,7.30
2023-03-02T11:16:20.986Z,7.32
2023-03-02T11:17:20.881Z,7.37
2023-03-02T11:18:20.866Z,7.47
2023-03-02T11:19:20.858Z,7.42
2023-03-02T11:20:20.842Z,7.36
2023-03-02T11:21:20.827Z,7.32
2023-03-02T11:22:20.845Z,7.24
2023-03-02T11:23:20.815Z,7.18
2023-03-02T11:24:20.789Z,7.24
2023-03-02T11:25:20.824Z,7.29
2023-03-02T11:26:20.754Z,7.36
2023-03-02T11:27:20.747Z,7.50
2023-03-02T11:28:20.730Z,7.34
2023-03-02T11:29:22.673Z,7.44
2023-03-02T11:30:20.703Z,7.57
2023-03-02T11:31:20.781Z,7.60
2023-03-02T11:32:20.779Z,7.63
2023-03-02T11:33:20.804Z,7.60
2023-03-02T11:34:20.703Z,7.55
2023-03-02T11:35:22.517Z,7.74
2023-03-02T11:36:20.629Z,7.70
2023-03-02T11:37:20.611Z,7.91
2023-03-02T11:38:20.656Z,7.96
2023-03-02T11:39:20.588Z,8.00
2023-03-02T11:40:20.569Z,8.02
2023-03-02T11:41:20.560Z,7.96
2023-03-02T11:42:20.618Z,7.91
2023-03-02T11:43:20.534Z,7.92
2023-03-02T11:44:20.528Z,7.89
2023-03-02T11:45:20.653Z,7.88
2023-03-02T11:46:22.250Z,7.85
2023-03-02T11:47:20.612Z,8.03
2023-03-02T11:48:20.468Z,7.94
2023-03-02T11:49:20.474Z,7.89
2023-03-02T11:50:20.434Z,8.10
2023-03-02T11:51:20.432Z,8.12
2023-03-02T11:52:20.411Z,8.25
2023-03-02T11:53:20.420Z,8.20
2023-03-02T11:54:20.413Z,8.13
2023-03-02T11:55:20.371Z,8.24
2023-03-02T11:56:20.362Z,8.24
2023-03-02T11:57:20.343Z,8.02
2023-03-02T11:58:20.341Z,7.96
2023-03-02T11:59:20.317Z,8.20
2023-03-02T12:00:20.308Z,8.22
2023-03-02T12:01:20.291Z,8.31
2023-03-02T12:02:20.305Z,8.34
2023-03-02T12:03:20.255Z,8.49
2023-03-02T12:04:20.255Z,8.61
2023-03-02T12:05:20.240Z,8.57
2023-03-02T12:06:20.217Z,8.55
2023-03-02T12:07:20.208Z,8.47
2023-03-02T12:08:20.369Z,8.43
2023-03-02T12:09:20.556Z,8.21
2023-03-02T12:10:20.177Z,8.25
2023-03-02T12:11:20.148Z,8.18
2023-03-02T12:12:20.129Z,8.36
2023-03-02T12:13:20.171Z,8.36
2023-03-02T12:14:20.119Z,8.27
2023-03-02T12:15:20.095Z,8.36
2023-03-02T12:16:20.123Z,8.37
2023-03-02T12:17:20.065Z,8.39
2023-03-02T12:18:20.350Z,8.34
2023-03-02T12:19:20.047Z,8.36
2023-03-02T12:20:20.082Z,8.46
2023-03-02T12:21:20.016Z,8.29
2023-03-02T12:22:20.006Z,8.20
2023-03-02T12:23:20.013Z,8.37
2023-03-02T12:24:19.970Z,8.22
2023-03-02T12:25:19.962Z,8.18
2023-03-02T12:26:19.991Z,8.14
2023-03-02T12:27:19.932Z,8.13
2023-03-02T12:28:19.951Z,8.13
2023-03-02T12:29:19.959Z,8.32
2023-03-02T12:30:19.961Z,8.14
2023-03-02T12:31:19.925Z,8.25
2023-03-02T12:32:19.898Z,8.40
2023-03-02T12:33:19.924Z,8.28
2023-03-02T12:34:19.867Z,8.18
2023-03-02T12:35:19.870Z,8.36
2023-03-02T12:36:19.802Z,8.32
2023-03-02T12:37:19.793Z,8.24
2023-03-02T12:38:19.825Z,8.10
2023-03-02T12:39:19.770Z,8.28
2023-03-02T12:40:19.843Z,8.17
2023-03-02T12:41:19.748Z,8.09
2023-03-02T12:42:19.753Z,8.31
2023-03-02T12:43:19.780Z,8.31
2023-03-02T12:44:19.699Z,8.22
2023-03-02T12:45:19.686Z,8.25
2023-03-02T12:46:19.752Z,8.45
2023-03-02T12:47:20.397Z,8.29
2023-03-02T12:48:19.855Z,8.39
2023-03-02T12:49:19.623Z,8.47
2023-03-02T12:50:19.615Z,8.52
2023-03-02T12:51:19.731Z,8.61
2023-03-02T12:52:21.148Z,8.49
2023-03-02T12:53:19.600Z,8.43
2023-03-02T12:54:19.560Z,8.31
2023-03-02T12:55:19.565Z,8.39
2023-03-02T12:56:19.576Z,8.12
2023-03-02T12:57:19.527Z,8.03
2023-03-02T12:58:19.729Z,8.02
2023-03-02T12:59:19.489Z,8.14
2023-03-02T13:00:19.545Z,8.17
2023-03-02T13:01:19.490Z,8.39
2023-03-02T13:02:19.498Z,8.46
2023-03-02T13:03:19.444Z,8.40
2023-03-02T13:04:19.454Z,8.54
2023-03-02T13:05:19.409Z,8.50
2023-03-02T13:06:20.529Z,8.42
2023-03-02T13:07:19.392Z,8.64
2023-03-02T13:08:19.485Z,8.76
2023-03-02T13:09:19.355Z,8.61
2023-03-02T13:10:19.523Z,8.61
2023-03-02T13:11:19.374Z,8.29
2023-03-02T13:12:19.313Z,8.31
2023-03-02T13:13:19.357Z,8.27
2023-03-02T13:14:19.309Z,8.40
2023-03-02T13:15:19.273Z,8.52
2023-03-02T13:16:19.321Z,8.60